sensor_id;sensor_type;location;lat;lon;timestamp;temperature;humidity
67273;DHT22;54190;49.770;9.250;2024-01-30T00:02:21;1.00;99.90
67273;DHT22;54190;49.770;9.250;2024-01-30T00:04:47;1.00;99.90
67273;DHT22;54190;49.770;9.250;2024-01-30T00:07:13;1.00;99.90
67273;DHT22;54190;49.770;9.250;2024-01-30T00:09:38;1.00;99.90
67273;DHT22;54190;49.770;9.250;2024-01-30T00:12:07;1.00;99.90
67273;DHT22;54190;49.770;9.250;2024-01-30T00:14:32;1.10;99.90
67273;DHT22;54190;49.770;9.250;2024-01-30T00:16:58;1.10;99.90
67273;DHT22;54190;49.770;9.250;2024-01-30T00:19:24;1.10;99.90
67273;DHT22;54190;49.770;9.250;2024-01-30T00:21:49;1.10;99.90
67273;DHT22;54190;49.770;9.250;2024-01-30T00:24:15;1.00;99.90
67273;DHT22;54190;49.770;9.250;2024-01-30T00:26:41;1.00;99.90
67273;DHT22;54190;49.770;9.250;2024-01-30T00:29:06;0.90;99.90
67273;DHT22;54190;49.770;9.250;2024-01-30T00:31:32;0.90;99.90
67273;DHT22;54190;49.770;9.250;2024-01-30T00:33:57;0.90;99.90
67273;DHT22;54190;49.770;9.250;2024-01-30T00:36:23;0.90;99.90
67273;DHT22;54190;49.770;9.250;2024-01-30T00:38:49;0.90;99.90
67273;DHT22;54190;49.770;9.250;2024-01-30T00:41:15;0.90;99.90
67273;DHT22;54190;49.770;9.250;2024-01-30T00:43:42;0.90;99.90
67273;DHT22;54190;49.770;9.250;2024-01-30T00:46:08;0.90;99.90
67273;DHT22;54190;49.770;9.250;2024-01-30T00:48:34;0.90;99.90
67273;DHT22;54190;49.770;9.250;2024-01-30T00:50:59;0.90;99.90
67273;DHT22;54190;49.770;9.250;2024-01-30T00:53:25;0.90;99.90
67273;DHT22;54190;49.770;9.250;2024-01-30T00:55:50;1.00;99.90
67273;DHT22;54190;49.770;9.250;2024-01-30T00:58:16;1.00;99.90
67273;DHT22;54190;49.770;9.250;2024-01-30T01:00:41;0.90;99.90
67273;DHT22;54190;49.770;9.250;2024-01-30T01:03:07;0.90;99.90
67273;DHT22;54190;49.770;9.250;2024-01-30T01:05:33;0.90;99.90
67273;DHT22;54190;49.770;9.250;2024-01-30T01:07:58;0.90;99.90
67273;DHT22;54190;49.770;9.250;2024-01-30T01:10:24;0.90;99.90
67273;DHT22;54190;49.770;9.250;2024-01-30T01:12:49;0.90;99.90
67273;DHT22;54190;49.770;9.250;2024-01-30T01:15:15;0.90;99.90
67273;DHT22;54190;49.770;9.250;2024-01-30T01:17:41;0.90;99.90
67273;DHT22;54190;49.770;9.250;2024-01-30T01:20:07;0.90;99.90
67273;DHT22;54190;49.770;9.250;2024-01-30T01:22:33;0.90;99.90
67273;DHT22;54190;49.770;9.250;2024-01-30T01:25:00;0.90;99.90
67273;DHT22;54190;49.770;9.250;2024-01-30T01:27:26;0.90;99.90
67273;DHT22;54190;49.770;9.250;2024-01-30T01:29:52;0.90;99.90
67273;DHT22;54190;49.770;9.250;2024-01-30T01:32:18;0.90;99.90
67273;DHT22;54190;49.770;9.250;2024-01-30T01:34:44;0.90;99.90
67273;DHT22;54190;49.770;9.250;2024-01-30T01:37:09;0.90;99.90
67273;DHT22;54190;49.770;9.250;2024-01-30T01:39:35;0.90;99.90
67273;DHT22;54190;49.770;9.250;2024-01-30T01:42:01;1.00;99.90
67273;DHT22;54190;49.770;9.250;2024-01-30T01:44:27;0.90;99.90
67273;DHT22;54190;49.770;9.250;2024-01-30T01:46:54;0.90;99.90
67273;DHT22;54190;49.770;9.250;2024-01-30T01:49:20;0.90;99.90
67273;DHT22;54190;49.770;9.250;2024-01-30T01:51:48;0.90;99.90
67273;DHT22;54190;49.770;9.250;2024-01-30T01:54:15;0.80;99.90
67273;DHT22;54190;49.770;9.250;2024-01-30T01:56:42;0.80;99.90
67273;DHT22;54190;49.770;9.250;2024-01-30T01:59:08;0.80;99.90
67273;DHT22;54190;49.770;9.250;2024-01-30T02:01:37;0.80;99.90
67273;DHT22;54190;49.770;9.250;2024-01-30T02:04:03;0.80;99.90
67273;DHT22;54190;49.770;9.250;2024-01-30T02:06:29;0.80;99.90
67273;DHT22;54190;49.770;9.250;2024-01-30T02:08:55;0.90;99.90
67273;DHT22;54190;49.770;9.250;2024-01-30T02:11:22;0.90;99.90
67273;DHT22;54190;49.770;9.250;2024-01-30T02:13:49;0.90;99.90
67273;DHT22;54190;49.770;9.250;2024-01-30T02:16:15;0.90;99.90
67273;DHT22;54190;49.770;9.250;2024-01-30T02:18:42;0.80;99.90
67273;DHT22;54190;49.770;9.250;2024-01-30T02:21:11;0.80;99.90
67273;DHT22;54190;49.770;9.250;2024-01-30T02:23:38;0.80;99.90
67273;DHT22;54190;49.770;9.250;2024-01-30T02:26:04;0.70;99.90
67273;DHT22;54190;49.770;9.250;2024-01-30T02:28:30;0.70;99.90
67273;DHT22;54190;49.770;9.250;2024-01-30T02:30:56;0.70;99.90
67273;DHT22;54190;49.770;9.250;2024-01-30T02:33:21;0.70;99.90
67273;DHT22;54190;49.770;9.250;2024-01-30T02:35:48;0.60;99.90
67273;DHT22;54190;49.770;9.250;2024-01-30T02:38:15;0.50;99.90
67273;DHT22;54190;49.770;9.250;2024-01-30T02:40:40;0.50;99.90
67273;DHT22;54190;49.770;9.250;2024-01-30T02:43:06;0.50;99.90
67273;DHT22;54190;49.770;9.250;2024-01-30T02:45:31;0.50;99.90
67273;DHT22;54190;49.770;9.250;2024-01-30T02:47:57;0.50;99.90
67273;DHT22;54190;49.770;9.250;2024-01-30T02:50:23;0.60;99.90
67273;DHT22;54190;49.770;9.250;2024-01-30T02:52:48;0.50;99.90
67273;DHT22;54190;49.770;9.250;2024-01-30T02:55:14;0.50;99.90
67273;DHT22;54190;49.770;9.250;2024-01-30T02:57:42;0.50;99.90
67273;DHT22;54190;49.770;9.250;2024-01-30T03:00:08;0.50;99.90
67273;DHT22;54190;49.770;9.250;2024-01-30T03:02:35;0.50;99.90
67273;DHT22;54190;49.770;9.250;2024-01-30T03:05:01;0.50;99.90
67273;DHT22;54190;49.770;9.250;2024-01-30T03:07:28;0.40;99.90
67273;DHT22;54190;49.770;9.250;2024-01-30T03:09:54;0.50;99.90
67273;DHT22;54190;49.770;9.250;2024-01-30T03:12:21;0.50;99.90
67273;DHT22;54190;49.770;9.250;2024-01-30T03:14:47;0.50;99.90
67273;DHT22;54190;49.770;9.250;2024-01-30T03:17:12;0.40;99.90
67273;DHT22;54190;49.770;9.250;2024-01-30T03:19:38;0.40;99.90
67273;DHT22;54190;49.770;9.250;2024-01-30T03:22:04;0.40;99.90
67273;DHT22;54190;49.770;9.250;2024-01-30T03:24:29;0.40;99.90
67273;DHT22;54190;49.770;9.250;2024-01-30T03:26:55;0.40;99.90
67273;DHT22;54190;49.770;9.250;2024-01-30T03:29:20;0.40;99.90
67273;DHT22;54190;49.770;9.250;2024-01-30T03:31:46;0.40;99.90
67273;DHT22;54190;49.770;9.250;2024-01-30T03:34:12;0.40;99.90
67273;DHT22;54190;49.770;9.250;2024-01-30T03:36:38;0.40;99.90
67273;DHT22;54190;49.770;9.250;2024-01-30T03:39:03;0.50;99.90
67273;DHT22;54190;49.770;9.250;2024-01-30T03:41:29;0.40;99.90
67273;DHT22;54190;49.770;9.250;2024-01-30T03:43:55;0.50;99.90
67273;DHT22;54190;49.770;9.250;2024-01-30T03:46:20;0.50;99.90
67273;DHT22;54190;49.770;9.250;2024-01-30T03:48:46;0.50;99.90
67273;DHT22;54190;49.770;9.250;2024-01-30T03:51:11;0.50;99.90
67273;DHT22;54190;49.770;9.250;2024-01-30T03:53:40;0.50;99.90
67273;DHT22;54190;49.770;9.250;2024-01-30T03:56:07;0.50;99.90
67273;DHT22;54190;49.770;9.250;2024-01-30T03:58:33;0.40;99.90
67273;DHT22;54190;49.770;9.250;2024-01-30T04:00:58;0.40;99.90
67273;DHT22;54190;49.770;9.250;2024-01-30T04:03:24;0.30;99.90
67273;DHT22;54190;49.770;9.250;2024-01-30T04:05:52;0.10;99.90
67273;DHT22;54190;49.770;9.250;2024-01-30T04:08:18;0.10;99.90
67273;DHT22;54190;49.770;9.250;2024-01-30T04:10:44;0.20;99.90
67273;DHT22;54190;49.770;9.250;2024-01-30T04:13:10;0.10;99.90
67273;DHT22;54190;49.770;9.250;2024-01-30T04:15:35;0.10;99.90
67273;DHT22;54190;49.770;9.250;2024-01-30T04:18:01;0.10;99.90
67273;DHT22;54190;49.770;9.250;2024-01-30T04:20:27;0.10;99.90
67273;DHT22;54190;49.770;9.250;2024-01-30T04:22:52;0.10;99.90
67273;DHT22;54190;49.770;9.250;2024-01-30T04:25:18;0.10;99.90
67273;DHT22;54190;49.770;9.250;2024-01-30T04:27:44;0.10;99.90
67273;DHT22;54190;49.770;9.250;2024-01-30T04:30:10;0.10;99.90
67273;DHT22;54190;49.770;9.250;2024-01-30T04:32:36;0.10;99.90
67273;DHT22;54190;49.770;9.250;2024-01-30T04:35:02;0.20;99.90
67273;DHT22;54190;49.770;9.250;2024-01-30T04:37:28;0.20;99.90
67273;DHT22;54190;49.770;9.250;2024-01-30T04:39:54;0.20;99.90
67273;DHT22;54190;49.770;9.250;2024-01-30T04:42:19;0.10;99.90
67273;DHT22;54190;49.770;9.250;2024-01-30T04:44:45;0.10;99.90
67273;DHT22;54190;49.770;9.250;2024-01-30T04:47:10;0.10;99.90
67273;DHT22;54190;49.770;9.250;2024-01-30T04:49:38;0.10;99.90
67273;DHT22;54190;49.770;9.250;2024-01-30T04:52:05;0.10;99.90
67273;DHT22;54190;49.770;9.250;2024-01-30T04:54:31;0.10;99.90
67273;DHT22;54190;49.770;9.250;2024-01-30T04:56:57;0.10;99.90
67273;DHT22;54190;49.770;9.250;2024-01-30T04:59:22;0.00;99.90
67273;DHT22;54190;49.770;9.250;2024-01-30T05:01:48;0.00;99.90
67273;DHT22;54190;49.770;9.250;2024-01-30T05:04:14;0.00;99.90
67273;DHT22;54190;49.770;9.250;2024-01-30T05:06:39;0.10;99.90
67273;DHT22;54190;49.770;9.250;2024-01-30T05:09:05;0.10;99.90
67273;DHT22;54190;49.770;9.250;2024-01-30T05:11:31;0.10;99.90
67273;DHT22;54190;49.770;9.250;2024-01-30T05:13:56;0.10;99.90
67273;DHT22;54190;49.770;9.250;2024-01-30T05:16:22;0.10;99.90
67273;DHT22;54190;49.770;9.250;2024-01-30T05:18:48;0.10;99.90
67273;DHT22;54190;49.770;9.250;2024-01-30T05:21:13;0.00;99.90
67273;DHT22;54190;49.770;9.250;2024-01-30T05:23:39;0.10;99.90
67273;DHT22;54190;49.770;9.250;2024-01-30T05:26:07;0.10;99.90
67273;DHT22;54190;49.770;9.250;2024-01-30T05:28:33;0.00;99.90
67273;DHT22;54190;49.770;9.250;2024-01-30T05:30:59;0.00;99.90
67273;DHT22;54190;49.770;9.250;2024-01-30T05:33:25;0.00;99.90
67273;DHT22;54190;49.770;9.250;2024-01-30T05:35:50;0.00;99.90
67273;DHT22;54190;49.770;9.250;2024-01-30T05:38:19;-0.10;99.90
67273;DHT22;54190;49.770;9.250;2024-01-30T05:40:45;-0.10;99.90
67273;DHT22;54190;49.770;9.250;2024-01-30T05:43:11;-0.10;99.90
67273;DHT22;54190;49.770;9.250;2024-01-30T05:45:37;-0.10;99.90
67273;DHT22;54190;49.770;9.250;2024-01-30T05:48:03;-0.10;99.90
67273;DHT22;54190;49.770;9.250;2024-01-30T05:50:29;-0.10;99.90
67273;DHT22;54190;49.770;9.250;2024-01-30T05:52:55;0.00;99.90
67273;DHT22;54190;49.770;9.250;2024-01-30T05:55:20;-0.10;99.90
67273;DHT22;54190;49.770;9.250;2024-01-30T05:57:46;0.00;99.90
67273;DHT22;54190;49.770;9.250;2024-01-30T06:00:12;-0.10;99.90
67273;DHT22;54190;49.770;9.250;2024-01-30T06:02:38;-0.20;99.90
67273;DHT22;54190;49.770;9.250;2024-01-30T06:05:04;-0.20;99.90
67273;DHT22;54190;49.770;9.250;2024-01-30T06:07:29;-0.10;99.90
67273;DHT22;54190;49.770;9.250;2024-01-30T06:09:55;-0.10;99.90
67273;DHT22;54190;49.770;9.250;2024-01-30T06:12:20;-0.10;99.90
67273;DHT22;54190;49.770;9.250;2024-01-30T06:14:46;-0.10;99.90
67273;DHT22;54190;49.770;9.250;2024-01-30T06:17:12;0.00;99.90
67273;DHT22;54190;49.770;9.250;2024-01-30T06:19:40;0.00;99.90
67273;DHT22;54190;49.770;9.250;2024-01-30T06:22:06;0.00;99.90
67273;DHT22;54190;49.770;9.250;2024-01-30T06:24:32;0.00;99.90
67273;DHT22;54190;49.770;9.250;2024-01-30T06:26:59;0.00;99.90
67273;DHT22;54190;49.770;9.250;2024-01-30T06:29:24;-0.10;99.90
67273;DHT22;54190;49.770;9.250;2024-01-30T06:31:52;-0.10;99.90
67273;DHT22;54190;49.770;9.250;2024-01-30T06:34:17;-0.20;99.90
67273;DHT22;54190;49.770;9.250;2024-01-30T06:36:43;-0.10;99.90
67273;DHT22;54190;49.770;9.250;2024-01-30T06:39:08;-0.20;99.90
67273;DHT22;54190;49.770;9.250;2024-01-30T06:41:34;-0.20;99.90
67273;DHT22;54190;49.770;9.250;2024-01-30T06:44:02;-0.20;99.90
67273;DHT22;54190;49.770;9.250;2024-01-30T06:46:29;-0.20;99.90
67273;DHT22;54190;49.770;9.250;2024-01-30T06:48:54;-0.20;99.90
67273;DHT22;54190;49.770;9.250;2024-01-30T06:51:20;-0.20;99.90
67273;DHT22;54190;49.770;9.250;2024-01-30T06:53:46;-0.20;99.90
67273;DHT22;54190;49.770;9.250;2024-01-30T06:56:11;-0.20;99.90
67273;DHT22;54190;49.770;9.250;2024-01-30T06:58:37;-0.20;99.90
67273;DHT22;54190;49.770;9.250;2024-01-30T07:01:03;-0.20;99.90
67273;DHT22;54190;49.770;9.250;2024-01-30T07:03:28;-0.20;99.90
67273;DHT22;54190;49.770;9.250;2024-01-30T07:05:54;-0.20;99.90
67273;DHT22;54190;49.770;9.250;2024-01-30T07:08:20;-0.20;99.90
67273;DHT22;54190;49.770;9.250;2024-01-30T07:10:46;-0.20;99.90
67273;DHT22;54190;49.770;9.250;2024-01-30T07:13:12;-0.20;99.90
67273;DHT22;54190;49.770;9.250;2024-01-30T07:15:38;-0.20;99.90
67273;DHT22;54190;49.770;9.250;2024-01-30T07:18:05;-0.20;99.90
67273;DHT22;54190;49.770;9.250;2024-01-30T07:20:31;-0.20;99.90
67273;DHT22;54190;49.770;9.250;2024-01-30T07:23:00;-0.10;99.90
67273;DHT22;54190;49.770;9.250;2024-01-30T07:25:25;-0.10;99.90
67273;DHT22;54190;49.770;9.250;2024-01-30T07:27:55;0.00;99.90
67273;DHT22;54190;49.770;9.250;2024-01-30T07:30:22;0.00;99.90
67273;DHT22;54190;49.770;9.250;2024-01-30T07:32:48;-0.10;99.90
67273;DHT22;54190;49.770;9.250;2024-01-30T07:35:14;0.00;99.90
67273;DHT22;54190;49.770;9.250;2024-01-30T07:37:40;0.00;99.90
67273;DHT22;54190;49.770;9.250;2024-01-30T07:40:06;0.00;99.90
67273;DHT22;54190;49.770;9.250;2024-01-30T07:42:32;0.00;99.90
67273;DHT22;54190;49.770;9.250;2024-01-30T07:44:58;0.00;99.90
67273;DHT22;54190;49.770;9.250;2024-01-30T07:47:24;0.00;99.90
67273;DHT22;54190;49.770;9.250;2024-01-30T07:49:50;0.00;99.90
67273;DHT22;54190;49.770;9.250;2024-01-30T07:52:16;0.00;99.90
67273;DHT22;54190;49.770;9.250;2024-01-30T07:54:41;0.00;99.90
67273;DHT22;54190;49.770;9.250;2024-01-30T07:57:07;0.00;99.90
67273;DHT22;54190;49.770;9.250;2024-01-30T07:59:32;0.10;99.90
67273;DHT22;54190;49.770;9.250;2024-01-30T08:01:58;0.10;99.90
67273;DHT22;54190;49.770;9.250;2024-01-30T08:04:24;0.10;99.90
67273;DHT22;54190;49.770;9.250;2024-01-30T08:06:49;0.10;99.90
67273;DHT22;54190;49.770;9.250;2024-01-30T08:09:15;0.10;99.90
67273;DHT22;54190;49.770;9.250;2024-01-30T08:11:40;0.20;99.90
67273;DHT22;54190;49.770;9.250;2024-01-30T08:14:06;0.10;99.90
67273;DHT22;54190;49.770;9.250;2024-01-30T08:16:32;0.20;99.90
67273;DHT22;54190;49.770;9.250;2024-01-30T08:18:57;0.20;99.90
67273;DHT22;54190;49.770;9.250;2024-01-30T08:21:23;0.30;99.90
67273;DHT22;54190;49.770;9.250;2024-01-30T08:23:49;0.30;99.90
67273;DHT22;54190;49.770;9.250;2024-01-30T08:26:15;0.30;99.90
67273;DHT22;54190;49.770;9.250;2024-01-30T08:28:40;0.30;99.90
67273;DHT22;54190;49.770;9.250;2024-01-30T08:31:06;0.30;99.90
67273;DHT22;54190;49.770;9.250;2024-01-30T08:33:32;0.40;99.90
67273;DHT22;54190;49.770;9.250;2024-01-30T08:35:57;0.30;99.90
67273;DHT22;54190;49.770;9.250;2024-01-30T08:38:23;0.30;99.90
67273;DHT22;54190;49.770;9.250;2024-01-30T08:40:49;0.30;99.90
67273;DHT22;54190;49.770;9.250;2024-01-30T08:43:14;0.30;99.90
67273;DHT22;54190;49.770;9.250;2024-01-30T08:45:40;0.30;99.90
67273;DHT22;54190;49.770;9.250;2024-01-30T08:48:07;0.30;99.90
67273;DHT22;54190;49.770;9.250;2024-01-30T08:50:33;0.40;99.90
67273;DHT22;54190;49.770;9.250;2024-01-30T08:52:59;0.40;99.90
67273;DHT22;54190;49.770;9.250;2024-01-30T08:55:24;0.50;99.90
67273;DHT22;54190;49.770;9.250;2024-01-30T08:57:50;0.50;99.90
67273;DHT22;54190;49.770;9.250;2024-01-30T09:00:17;0.60;99.90
67273;DHT22;54190;49.770;9.250;2024-01-30T09:02:43;0.60;99.90
67273;DHT22;54190;49.770;9.250;2024-01-30T09:05:09;0.60;99.90
67273;DHT22;54190;49.770;9.250;2024-01-30T09:07:35;0.60;99.90
67273;DHT22;54190;49.770;9.250;2024-01-30T09:10:00;0.70;99.90
67273;DHT22;54190;49.770;9.250;2024-01-30T09:12:26;0.70;99.90
67273;DHT22;54190;49.770;9.250;2024-01-30T09:14:52;0.70;99.90
67273;DHT22;54190;49.770;9.250;2024-01-30T09:17:18;0.80;99.90
67273;DHT22;54190;49.770;9.250;2024-01-30T09:19:43;0.80;99.90
67273;DHT22;54190;49.770;9.250;2024-01-30T09:22:09;0.90;99.90
67273;DHT22;54190;49.770;9.250;2024-01-30T09:24:35;0.90;99.90
67273;DHT22;54190;49.770;9.250;2024-01-30T09:27:00;1.00;99.90
67273;DHT22;54190;49.770;9.250;2024-01-30T09:29:26;1.00;99.90
67273;DHT22;54190;49.770;9.250;2024-01-30T09:31:51;1.10;99.90
67273;DHT22;54190;49.770;9.250;2024-01-30T09:34:17;1.10;99.90
67273;DHT22;54190;49.770;9.250;2024-01-30T09:36:43;1.20;99.90
67273;DHT22;54190;49.770;9.250;2024-01-30T09:39:08;1.20;99.90
67273;DHT22;54190;49.770;9.250;2024-01-30T09:41:45;1.20;99.90
67273;DHT22;54190;49.770;9.250;2024-01-30T09:44:13;1.30;99.90
67273;DHT22;54190;49.770;9.250;2024-01-30T09:46:40;1.30;99.90
67273;DHT22;54190;49.770;9.250;2024-01-30T09:49:08;1.40;99.90
67273;DHT22;54190;49.770;9.250;2024-01-30T09:51:34;1.50;99.90
67273;DHT22;54190;49.770;9.250;2024-01-30T09:54:02;1.50;99.90
67273;DHT22;54190;49.770;9.250;2024-01-30T09:56:28;1.50;99.90
67273;DHT22;54190;49.770;9.250;2024-01-30T09:58:54;1.60;99.90
67273;DHT22;54190;49.770;9.250;2024-01-30T10:01:20;1.60;99.90
67273;DHT22;54190;49.770;9.250;2024-01-30T10:03:46;1.70;99.90
67273;DHT22;54190;49.770;9.250;2024-01-30T10:06:11;1.70;99.90
67273;DHT22;54190;49.770;9.250;2024-01-30T10:08:37;1.80;99.90
67273;DHT22;54190;49.770;9.250;2024-01-30T10:11:03;1.90;99.90
67273;DHT22;54190;49.770;9.250;2024-01-30T10:13:29;1.90;99.90
67273;DHT22;54190;49.770;9.250;2024-01-30T10:15:55;2.00;99.90
67273;DHT22;54190;49.770;9.250;2024-01-30T10:18:22;2.10;99.90
67273;DHT22;54190;49.770;9.250;2024-01-30T10:20:49;2.10;99.90
67273;DHT22;54190;49.770;9.250;2024-01-30T10:23:14;2.20;99.90
67273;DHT22;54190;49.770;9.250;2024-01-30T10:25:40;2.30;99.90
67273;DHT22;54190;49.770;9.250;2024-01-30T10:28:07;2.30;99.90
67273;DHT22;54190;49.770;9.250;2024-01-30T10:30:32;2.40;99.90
67273;DHT22;54190;49.770;9.250;2024-01-30T10:32:58;2.40;99.90
67273;DHT22;54190;49.770;9.250;2024-01-30T10:35:23;2.50;99.90
67273;DHT22;54190;49.770;9.250;2024-01-30T10:37:49;2.50;99.90
67273;DHT22;54190;49.770;9.250;2024-01-30T10:40:15;2.60;99.90
67273;DHT22;54190;49.770;9.250;2024-01-30T10:42:45;2.70;99.90
67273;DHT22;54190;49.770;9.250;2024-01-30T10:45:14;2.80;99.90
67273;DHT22;54190;49.770;9.250;2024-01-30T10:47:50;3.00;99.90
67273;DHT22;54190;49.770;9.250;2024-01-30T10:50:18;3.10;99.90
67273;DHT22;54190;49.770;9.250;2024-01-30T10:52:45;3.10;99.90
67273;DHT22;54190;49.770;9.250;2024-01-30T10:55:11;3.20;99.90
67273;DHT22;54190;49.770;9.250;2024-01-30T10:57:37;3.30;99.90
67273;DHT22;54190;49.770;9.250;2024-01-30T11:00:10;3.40;99.90
67273;DHT22;54190;49.770;9.250;2024-01-30T11:02:41;3.50;99.90
67273;DHT22;54190;49.770;9.250;2024-01-30T11:05:08;3.50;99.90
67273;DHT22;54190;49.770;9.250;2024-01-30T11:07:34;3.60;99.90
67273;DHT22;54190;49.770;9.250;2024-01-30T11:10:00;3.60;99.90
67273;DHT22;54190;49.770;9.250;2024-01-30T11:12:27;3.70;99.90
67273;DHT22;54190;49.770;9.250;2024-01-30T11:15:08;3.70;99.90
67273;DHT22;54190;49.770;9.250;2024-01-30T11:17:43;3.70;99.90
67273;DHT22;54190;49.770;9.250;2024-01-30T11:22:42;3.70;99.90
67273;DHT22;54190;49.770;9.250;2024-01-30T11:25:14;3.80;99.90
67273;DHT22;54190;49.770;9.250;2024-01-30T11:27:41;3.90;99.90
67273;DHT22;54190;49.770;9.250;2024-01-30T11:30:07;3.90;99.90
67273;DHT22;54190;49.770;9.250;2024-01-30T11:32:33;4.00;99.90
67273;DHT22;54190;49.770;9.250;2024-01-30T11:34:59;4.10;99.90
67273;DHT22;54190;49.770;9.250;2024-01-30T11:37:25;4.20;99.90
67273;DHT22;54190;49.770;9.250;2024-01-30T11:39:53;4.30;99.90
67273;DHT22;54190;49.770;9.250;2024-01-30T11:42:19;4.40;99.90
67273;DHT22;54190;49.770;9.250;2024-01-30T11:44:48;4.50;99.90
67273;DHT22;54190;49.770;9.250;2024-01-30T11:47:14;4.50;99.90
67273;DHT22;54190;49.770;9.250;2024-01-30T12:01:11;4.80;99.90
67273;DHT22;54190;49.770;9.250;2024-01-30T12:03:37;4.90;99.90
67273;DHT22;54190;49.770;9.250;2024-01-30T12:06:03;5.00;99.90
67273;DHT22;54190;49.770;9.250;2024-01-30T12:08:28;5.00;99.90
67273;DHT22;54190;49.770;9.250;2024-01-30T12:10:57;5.10;99.90
67273;DHT22;54190;49.770;9.250;2024-01-30T12:13:31;5.20;99.90
67273;DHT22;54190;49.770;9.250;2024-01-30T12:15:57;5.20;99.90
67273;DHT22;54190;49.770;9.250;2024-01-30T12:18:22;5.30;99.90
67273;DHT22;54190;49.770;9.250;2024-01-30T12:20:58;5.30;99.90
67273;DHT22;54190;49.770;9.250;2024-01-30T12:23:25;5.30;99.90
67273;DHT22;54190;49.770;9.250;2024-01-30T12:25:52;5.40;99.90
67273;DHT22;54190;49.770;9.250;2024-01-30T12:28:17;5.50;99.90
67273;DHT22;54190;49.770;9.250;2024-01-30T12:30:43;5.50;99.90
67273;DHT22;54190;49.770;9.250;2024-01-30T12:33:09;5.60;99.90
67273;DHT22;54190;49.770;9.250;2024-01-30T12:35:35;5.70;99.90
67273;DHT22;54190;49.770;9.250;2024-01-30T12:38:02;5.70;99.90
67273;DHT22;54190;49.770;9.250;2024-01-30T12:40:28;5.80;99.90
67273;DHT22;54190;49.770;9.250;2024-01-30T12:42:54;5.90;99.90
67273;DHT22;54190;49.770;9.250;2024-01-30T12:45:20;6.00;99.90
67273;DHT22;54190;49.770;9.250;2024-01-30T12:47:48;6.10;99.90
67273;DHT22;54190;49.770;9.250;2024-01-30T12:50:13;6.30;99.90
67273;DHT22;54190;49.770;9.250;2024-01-30T12:52:42;6.40;99.90
67273;DHT22;54190;49.770;9.250;2024-01-30T12:55:07;6.40;99.90
67273;DHT22;54190;49.770;9.250;2024-01-30T12:57:33;6.50;99.90
67273;DHT22;54190;49.770;9.250;2024-01-30T12:59:59;6.60;99.90
67273;DHT22;54190;49.770;9.250;2024-01-30T13:02:24;6.70;99.90
67273;DHT22;54190;49.770;9.250;2024-01-30T13:04:51;6.80;99.90
67273;DHT22;54190;49.770;9.250;2024-01-30T13:07:17;6.80;99.90
67273;DHT22;54190;49.770;9.250;2024-01-30T13:09:43;6.90;99.90
67273;DHT22;54190;49.770;9.250;2024-01-30T13:12:09;7.00;99.90
67273;DHT22;54190;49.770;9.250;2024-01-30T13:14:35;7.10;99.90
67273;DHT22;54190;49.770;9.250;2024-01-30T13:17:00;7.20;99.90
67273;DHT22;54190;49.770;9.250;2024-01-30T13:19:26;7.50;99.90
67273;DHT22;54190;49.770;9.250;2024-01-30T13:21:52;7.50;99.90
67273;DHT22;54190;49.770;9.250;2024-01-30T13:24:18;7.60;99.90
67273;DHT22;54190;49.770;9.250;2024-01-30T13:26:47;7.70;99.90
67273;DHT22;54190;49.770;9.250;2024-01-30T13:29:12;7.70;99.90
67273;DHT22;54190;49.770;9.250;2024-01-30T13:31:38;7.70;99.90
67273;DHT22;54190;49.770;9.250;2024-01-30T13:34:05;7.80;99.90
67273;DHT22;54190;49.770;9.250;2024-01-30T13:36:32;7.80;99.90
67273;DHT22;54190;49.770;9.250;2024-01-30T13:38:58;7.90;99.90
67273;DHT22;54190;49.770;9.250;2024-01-30T13:41:23;7.90;99.90
67273;DHT22;54190;49.770;9.250;2024-01-30T13:43:49;8.00;99.90
67273;DHT22;54190;49.770;9.250;2024-01-30T13:46:15;8.00;99.90
67273;DHT22;54190;49.770;9.250;2024-01-30T13:48:40;8.10;99.90
67273;DHT22;54190;49.770;9.250;2024-01-30T13:51:06;8.10;99.90
67273;DHT22;54190;49.770;9.250;2024-01-30T13:53:31;8.20;99.90
67273;DHT22;54190;49.770;9.250;2024-01-30T13:55:57;8.30;99.90
67273;DHT22;54190;49.770;9.250;2024-01-30T13:58:23;8.40;99.90
67273;DHT22;54190;49.770;9.250;2024-01-30T14:00:48;8.50;99.90
67273;DHT22;54190;49.770;9.250;2024-01-30T14:03:14;8.60;99.90
67273;DHT22;54190;49.770;9.250;2024-01-30T14:05:40;8.70;99.90
67273;DHT22;54190;49.770;9.250;2024-01-30T14:08:06;8.80;99.90
67273;DHT22;54190;49.770;9.250;2024-01-30T14:10:33;8.80;99.90
67273;DHT22;54190;49.770;9.250;2024-01-30T14:12:58;8.90;99.90
67273;DHT22;54190;49.770;9.250;2024-01-30T14:15:24;8.90;99.90
67273;DHT22;54190;49.770;9.250;2024-01-30T14:17:50;8.80;99.90
67273;DHT22;54190;49.770;9.250;2024-01-30T14:20:16;8.90;99.90
67273;DHT22;54190;49.770;9.250;2024-01-30T14:22:45;8.80;99.90
67273;DHT22;54190;49.770;9.250;2024-01-30T14:25:11;8.80;99.90
67273;DHT22;54190;49.770;9.250;2024-01-30T14:27:37;8.80;99.90
67273;DHT22;54190;49.770;9.250;2024-01-30T14:30:03;8.80;99.90
67273;DHT22;54190;49.770;9.250;2024-01-30T14:32:29;8.80;99.90
67273;DHT22;54190;49.770;9.250;2024-01-30T14:34:54;8.80;99.90
67273;DHT22;54190;49.770;9.250;2024-01-30T14:37:23;8.70;99.90
67273;DHT22;54190;49.770;9.250;2024-01-30T14:39:50;8.70;99.90
67273;DHT22;54190;49.770;9.250;2024-01-30T14:42:15;8.70;99.90
67273;DHT22;54190;49.770;9.250;2024-01-30T14:44:41;8.70;99.90
67273;DHT22;54190;49.770;9.250;2024-01-30T14:47:08;8.70;99.90
67273;DHT22;54190;49.770;9.250;2024-01-30T14:49:34;8.70;99.90
67273;DHT22;54190;49.770;9.250;2024-01-30T14:51:59;8.70;99.90
67273;DHT22;54190;49.770;9.250;2024-01-30T14:54:26;8.70;99.90
67273;DHT22;54190;49.770;9.250;2024-01-30T14:56:52;8.70;99.90
67273;DHT22;54190;49.770;9.250;2024-01-30T14:59:18;8.70;99.90
67273;DHT22;54190;49.770;9.250;2024-01-30T15:01:43;8.70;99.90
67273;DHT22;54190;49.770;9.250;2024-01-30T15:04:10;8.70;99.90
67273;DHT22;54190;49.770;9.250;2024-01-30T15:06:36;8.60;99.90
67273;DHT22;54190;49.770;9.250;2024-01-30T15:09:02;8.60;99.90
67273;DHT22;54190;49.770;9.250;2024-01-30T15:11:28;8.60;99.90
67273;DHT22;54190;49.770;9.250;2024-01-30T15:13:54;8.60;99.90
67273;DHT22;54190;49.770;9.250;2024-01-30T15:16:19;8.60;99.90
67273;DHT22;54190;49.770;9.250;2024-01-30T15:18:45;8.60;99.90
67273;DHT22;54190;49.770;9.250;2024-01-30T15:21:11;8.60;99.90
67273;DHT22;54190;49.770;9.250;2024-01-30T15:23:36;8.60;99.90
67273;DHT22;54190;49.770;9.250;2024-01-30T15:26:02;8.60;99.90
67273;DHT22;54190;49.770;9.250;2024-01-30T15:28:38;8.60;99.90
67273;DHT22;54190;49.770;9.250;2024-01-30T15:31:05;8.60;99.90
67273;DHT22;54190;49.770;9.250;2024-01-30T15:33:31;8.50;99.90
67273;DHT22;54190;49.770;9.250;2024-01-30T15:36:00;8.40;99.90
67273;DHT22;54190;49.770;9.250;2024-01-30T15:38:26;8.40;99.90
67273;DHT22;54190;49.770;9.250;2024-01-30T15:40:53;8.30;99.90
67273;DHT22;54190;49.770;9.250;2024-01-30T15:43:19;8.30;99.90
67273;DHT22;54190;49.770;9.250;2024-01-30T15:45:44;8.20;99.90
67273;DHT22;54190;49.770;9.250;2024-01-30T15:48:10;8.20;99.90
67273;DHT22;54190;49.770;9.250;2024-01-30T15:50:36;8.20;99.90
67273;DHT22;54190;49.770;9.250;2024-01-30T15:53:01;8.10;99.90